Time,TemperatureF,DewpointF,PressureIn,WindDirection,WindDirectionDegrees,WindSpeedMPH,WindSpeedGustMPH,Humidity,HourlyPrecipIn,Conditions,Clouds,dailyrainin,SolarRadiationWatts/m^2,SoftwareType,DateUTC
2013-08-23 00:04:00,66.0,66.0,-100.00,North,352,1.0,3.0,100,0.00,,,0.03,0.000000,,2013-08-23 04:04:00,
2013-08-23 00:43:00,65.0,65.0,-100.00,NW,305,0.0,3.0,100,0.00,,,0.03,0.000000,,2013-08-23 04:43:00,
2013-08-23 00:54:00,65.0,65.0,-100.00,NW,305,0.0,3.0,100,0.00,,,0.03,0.000000,,2013-08-23 04:54:00,
2013-08-23 01:04:00,65.0,65.0,-100.00,NW,305,0.0,3.0,100,0.00,,,0.03,0.000000,,2013-08-23 05:04:00,
2013-08-23 01:42:00,65.0,65.0,-100.00,North,360,0.0,2.0,100,0.00,,,0.03,0.000000,,2013-08-23 05:42:00,
2013-08-23 01:53:00,65.0,65.0,-100.00,North,360,0.0,2.0,100,0.00,,,0.03,0.000000,,2013-08-23 05:53:00,
2013-08-23 02:02:00,65.0,65.0,-100.00,North,360,0.0,2.0,100,0.00,,,0.03,0.000000,,2013-08-23 06:02:00,
2013-08-23 02:42:00,64.0,64.0,-100.00,NNW,339,0.0,2.0,100,0.00,,,0.03,0.000000,,2013-08-23 06:42:00,
2013-08-23 02:52:00,64.0,64.0,-100.00,NNW,339,0.0,2.0,100,0.00,,,0.03,0.000000,,2013-08-23 06:52:00,
2013-08-23 03:01:00,64.0,64.0,-100.00,NNW,339,0.0,2.0,100,0.00,,,0.03,0.000000,,2013-08-23 07:01:00,
2013-08-23 03:42:00,64.0,64.0,-100.00,North,3,0.0,0.0,100,0.00,,,0.03,0.000000,,2013-08-23 07:42:00,
2013-08-23 03:53:00,64.0,64.0,-100.00,North,3,0.0,0.0,100,0.00,,,0.03,0.000000,,2013-08-23 07:53:00,
2013-08-23 04:02:00,64.0,64.0,-100.00,North,3,0.0,0.0,100,0.00,,,0.03,0.000000,,2013-08-23 08:02:00,
2013-08-23 04:42:00,64.0,64.0,-100.00,NNW,332,0.0,2.0,100,0.00,,,0.03,0.000000,,2013-08-23 08:42:00,
2013-08-23 04:52:00,64.0,64.0,-100.00,NNW,332,0.0,2.0,100,0.00,,,0.03,0.000000,,2013-08-23 08:52:00,
2013-08-23 05:01:00,64.0,64.0,-100.00,NNW,332,0.0,2.0,100,0.00,,,0.03,0.000000,,2013-08-23 09:01:00,
2013-08-23 05:43:00,63.0,63.0,-100.00,NW,325,0.0,0.0,100,0.00,,,0.03,0.000000,,2013-08-23 09:43:00,
2013-08-23 05:53:00,63.0,63.0,-100.00,NW,325,0.0,0.0,100,0.00,,,0.03,0.000000,,2013-08-23 09:53:00,
2013-08-23 06:03:00,63.0,63.0,-100.00,NW,325,0.0,0.0,100,0.00,,,0.03,0.000000,,2013-08-23 10:03:00,
2013-08-23 06:42:00,63.0,63.0,-100.00,WNW,288,0.0,1.0,100,0.00,,,0.03,0.000000,,2013-08-23 10:42:00,
2013-08-23 06:53:00,63.0,63.0,-100.00,WNW,288,0.0,1.0,100,0.00,,,0.03,0.000000,,2013-08-23 10:53:00,
2013-08-23 07:02:00,63.0,63.0,-100.00,WNW,288,0.0,1.0,100,0.00,,,0.03,0.000000,,2013-08-23 11:02:00,
2013-08-23 07:42:00,63.0,63.0,-100.00,NNW,347,0.0,2.0,100,0.00,,,0.03,0.000000,,2013-08-23 11:42:00,
2013-08-23 07:53:00,63.0,63.0,-100.00,NNW,347,0.0,2.0,100,0.00,,,0.03,0.000000,,2013-08-23 11:53:00,
2013-08-23 08:01:00,63.0,63.0,-100.00,NNW,347,0.0,2.0,100,0.00,,,0.03,0.000000,,2013-08-23 12:01:00,
2013-08-23 08:42:00,64.0,64.0,-100.00,West,278,0.0,0.0,100,0.00,,,0.00,35.000000,,2013-08-23 12:42:00,
2013-08-23 08:52:00,64.0,64.0,-100.00,West,278,0.0,0.0,100,0.00,,,0.00,35.000000,,2013-08-23 12:52:00,
2013-08-23 09:02:00,64.0,64.0,-100.00,West,278,0.0,0.0,100,0.00,,,0.00,35.000000,,2013-08-23 13:02:00,
2013-08-23 09:42:00,73.0,73.0,-100.00,NE,47,0.0,3.0,100,0.00,,,0.00,259.000000,,2013-08-23 13:42:00,
2013-08-23 09:53:00,73.0,73.0,-100.00,NE,47,0.0,3.0,100,0.00,,,0.00,259.000000,,2013-08-23 13:53:00,
2013-08-23 10:02:00,73.0,73.0,-100.00,NE,47,0.0,3.0,100,0.00,,,0.00,259.000000,,2013-08-23 14:02:00,
2013-08-23 10:42:00,76.0,72.0,-100.00,NNE,26,4.0,7.0,87,0.00,,,0.00,460.000000,,2013-08-23 14:42:00,
2013-08-23 10:52:00,76.0,72.0,-100.00,NNE,26,4.0,7.0,87,0.00,,,0.00,460.000000,,2013-08-23 14:52:00,
2013-08-23 11:01:00,76.0,72.0,-100.00,NNE,26,4.0,7.0,87,0.00,,,0.00,460.000000,,2013-08-23 15:01:00,
2013-08-23 11:05:00,80.0,73.0,-100.00,NE,50,2.0,7.0,78,0.00,,,0.00,629.000000,,2013-08-23 15:05:00,
2013-08-23 11:44:00,80.0,73.0,-100.00,NE,50,2.0,7.0,78,0.00,,,0.00,629.000000,,2013-08-23 15:44:00,
2013-08-23 11:54:00,80.0,73.0,-100.00,NE,50,2.0,7.0,78,0.00,,,0.00,629.000000,,2013-08-23 15:54:00,
2013-08-23 12:42:00,80.0,72.0,-100.00,North,353,4.0,9.0,76,0.00,,,0.00,783.000000,,2013-08-23 16:42:00,
2013-08-23 12:53:00,80.0,72.0,-100.00,North,353,4.0,9.0,76,0.00,,,0.00,783.000000,,2013-08-23 16:53:00,
2013-08-23 13:04:00,80.0,72.0,-100.00,North,353,4.0,9.0,76,0.00,,,0.00,783.000000,,2013-08-23 17:04:00,
2013-08-23 13:43:00,81.0,72.0,-100.00,North,349,4.0,10.0,73,0.00,,,0.00,900.000000,,2013-08-23 17:43:00,
2013-08-23 13:54:00,81.0,72.0,-100.00,North,349,4.0,10.0,73,0.00,,,0.00,900.000000,,2013-08-23 17:54:00,
2013-08-23 14:02:00,81.0,72.0,-100.00,North,349,4.0,10.0,73,0.00,,,0.00,900.000000,,2013-08-23 18:02:00,
2013-08-23 14:42:00,82.0,70.0,-100.00,North,359,4.0,10.0,68,0.00,,,0.00,882.000000,,2013-08-23 18:42:00,
2013-08-23 14:52:00,82.0,70.0,-100.00,North,359,4.0,10.0,68,0.00,,,0.00,882.000000,,2013-08-23 18:52:00,
2013-08-23 15:02:00,82.0,70.0,-100.00,North,359,4.0,10.0,68,0.00,,,0.00,882.000000,,2013-08-23 19:02:00,
2013-08-23 15:42:00,83.0,69.0,-100.00,North,353,4.0,8.0,62,0.00,,,0.00,909.000000,,2013-08-23 19:42:00,
2013-08-23 15:52:00,83.0,69.0,-100.00,North,353,4.0,8.0,62,0.00,,,0.00,909.000000,,2013-08-23 19:52:00,
2013-08-23 16:02:00,83.0,69.0,-100.00,North,353,4.0,8.0,62,0.00,,,0.00,909.000000,,2013-08-23 20:02:00,
2013-08-23 16:42:00,83.0,69.0,-100.00,NW,316,4.0,9.0,62,0.00,,,0.00,769.000000,,2013-08-23 20:42:00,
2013-08-23 16:52:00,83.0,69.0,-100.00,NW,316,4.0,9.0,62,0.00,,,0.00,769.000000,,2013-08-23 20:52:00,
2013-08-23 17:02:00,83.0,69.0,-100.00,NW,316,4.0,9.0,62,0.00,,,0.00,769.000000,,2013-08-23 21:02:00,
2013-08-23 17:44:00,83.0,69.0,-100.00,NNW,345,4.0,7.0,62,0.00,,,0.00,635.000000,,2013-08-23 21:44:00,
2013-08-23 17:54:00,83.0,69.0,-100.00,NNW,345,4.0,7.0,62,0.00,,,0.00,635.000000,,2013-08-23 21:54:00,
2013-08-23 18:04:00,83.0,69.0,-100.00,NNW,345,4.0,7.0,62,0.00,,,0.00,635.000000,,2013-08-23 22:04:00,
2013-08-23 18:43:00,82.0,69.0,-100.00,North,6,4.0,6.0,65,0.00,,,0.00,445.000000,,2013-08-23 22:43:00,
2013-08-23 18:54:00,82.0,69.0,-100.00,North,6,4.0,6.0,65,0.00,,,0.00,445.000000,,2013-08-23 22:54:00,
2013-08-23 19:03:00,82.0,69.0,-100.00,North,6,4.0,6.0,65,0.00,,,0.00,445.000000,,2013-08-23 23:03:00,
2013-08-23 19:43:00,80.0,69.0,-100.00,North,351,3.0,8.0,69,0.00,,,0.00,244.000000,,2013-08-23 23:43:00,
2013-08-23 19:54:00,80.0,69.0,-100.00,North,351,3.0,8.0,69,0.00,,,0.00,244.000000,,2013-08-23 23:54:00,
2013-08-23 20:02:00,80.0,69.0,-100.00,North,351,3.0,8.0,69,0.00,,,0.00,244.000000,,2013-08-24 00:02:00,
2013-08-23 20:43:00,73.0,69.0,-100.00,North,360,2.0,11.0,88,0.00,,,0.00,28.000000,,2013-08-24 00:43:00,
2013-08-23 20:53:00,73.0,69.0,-100.00,North,360,2.0,11.0,88,0.00,,,0.00,28.000000,,2013-08-24 00:53:00,
2013-08-23 21:02:00,73.0,69.0,-100.00,North,360,2.0,11.0,88,0.00,,,0.00,28.000000,,2013-08-24 01:02:00,
2013-08-23 21:42:00,71.0,70.0,-100.00,NE,41,1.0,7.0,97,0.00,,,0.00,0.000000,,2013-08-24 01:42:00,
2013-08-23 21:53:00,71.0,70.0,-100.00,NE,41,1.0,7.0,97,0.00,,,0.00,0.000000,,2013-08-24 01:53:00,
2013-08-23 22:03:00,71.0,70.0,-100.00,NE,41,1.0,7.0,97,0.00,,,0.00,0.000000,,2013-08-24 02:03:00,
2013-08-23 22:42:00,70.0,69.0,-100.00,NNW,348,1.0,10.0,97,0.00,,,0.00,0.000000,,2013-08-24 02:42:00,
2013-08-23 22:52:00,70.0,69.0,-100.00,NNW,348,1.0,10.0,97,0.00,,,0.00,0.000000,,2013-08-24 02:52:00,
2013-08-23 23:02:00,70.0,69.0,-100.00,NNW,348,1.0,10.0,97,0.00,,,0.00,0.000000,,2013-08-24 03:02:00,
2013-08-23 23:44:00,68.0,68.0,-100.00,WNW,299,0.0,3.0,100,0.00,,,0.00,0.000000,,2013-08-24 03:44:00,
2013-08-23 23:55:00,68.0,68.0,-100.00,WNW,299,0.0,3.0,100,0.00,,,0.00,0.000000,,2013-08-24 03:55:00,